Time;durP1;ratioP1;P1;durP2;ratioP2;P2;SDS_P1;SDS_P2;PMS_P1;PMS_P2;Temp;Humidity;BMP_temperature;BMP_pressure;BME280_temperature;BME280_humidity;BME280_pressure;Samples;Min_cycle;Max_cycle;Signal;HPM_P1;HPM_P2
2023/09/06 00:01:35;;;;;;;10.27;8.88;;;;;;;16.13;100.00;100339.09;4772010;30;20461;-89
2023/09/06 00:04:00;;;;;;;11.48;9.10;;;;;;;16.03;100.00;100323.03;4772019;30;20039;-89
2023/09/06 00:06:27;;;;;;;10.25;8.50;;;;;;;16.11;100.00;100339.19;4772044;30;20077;-89
2023/09/06 00:08:53;;;;;;;11.75;9.00;;;;;;;15.91;100.00;100300.09;4788269;30;20038;-89
2023/09/06 00:11:18;;;;;;;13.10;9.68;;;;;;;15.96;100.00;100316.44;4771655;30;20039;-89
2023/09/06 00:13:43;;;;;;;11.43;9.00;;;;;;;16.11;100.00;100348.88;4749848;30;20526;-89
2023/09/06 00:16:09;;;;;;;11.40;8.45;;;;;;;16.01;100.00;100338.03;4749609;30;20466;-89
2023/09/06 00:18:35;;;;;;;10.40;8.45;;;;;;;16.04;100.00;100340.50;4749728;30;20063;-89
2023/09/06 00:21:00;;;;;;;11.63;9.13;;;;;;;15.92;100.00;100333.31;4749937;30;20442;-89
2023/09/06 00:23:26;;;;;;;9.40;8.50;;;;;;;15.99;100.00;100358.31;4699917;30;20048;-90
2023/09/06 00:25:54;;;;;;;10.48;8.30;;;;;;;15.84;100.00;100335.53;4700111;30;20510;-89
2023/09/06 00:28:20;;;;;;;11.00;9.35;;;;;;;15.81;100.00;100323.44;4699879;30;20531;-89
2023/09/06 00:30:48;;;;;;;10.60;8.35;;;;;;;15.91;100.00;100344.75;4714674;30;20044;-90
2023/09/06 00:33:13;;;;;;;11.23;9.10;;;;;;;15.75;100.00;100333.44;4699653;30;20041;-89
2023/09/06 00:35:39;;;;;;;10.57;8.75;;;;;;;15.52;100.00;100308.47;4714364;30;20416;-89
2023/09/06 00:38:05;;;;;;;10.27;8.80;;;;;;;15.74;100.00;100347.50;4714406;30;20041;-88
2023/09/06 00:40:35;;;;;;;9.80;8.48;;;;;;;15.73;100.00;100345.81;4714190;30;20049;-88
2023/09/06 00:43:02;;;;;;;9.43;8.13;;;;;;;15.68;100.00;100339.06;4714080;30;20135;-89
2023/09/06 00:45:39;;;;;;;10.75;8.27;;;;;;;15.66;100.00;100337.44;4728105;30;20048;-88
2023/09/06 00:48:07;;;;;;;11.52;8.52;;;;;;;15.56;100.00;100313.47;4731460;30;20082;-89
2023/09/06 00:50:36;;;;;;;11.73;9.23;;;;;;;15.62;100.00;100326.22;4731368;30;20142;-89
2023/09/06 00:53:05;;;;;;;10.93;8.65;;;;;;;15.57;100.00;100319.56;4731223;30;20094;-89
2023/09/06 00:55:30;;;;;;;9.70;8.10;;;;;;;15.56;100.00;100323.13;4747820;30;20130;-89
2023/09/06 00:57:56;;;;;;;11.10;9.50;;;;;;;15.44;100.00;100306.28;4734530;30;20136;-89
2023/09/06 01:00:24;;;;;;;9.75;8.55;;;;;;;15.47;100.00;100330.56;4734027;30;20054;-89
2023/09/06 01:02:50;;;;;;;11.35;9.02;;;;;;;15.44;100.00;100316.78;4749116;30;20123;-89
2023/09/06 01:05:17;;;;;;;11.07;9.30;;;;;;;15.16;100.00;100280.72;4734482;30;20134;-89
2023/09/06 01:07:59;;;;;;;11.52;9.10;;;;;;;15.44;100.00;100330.75;4752142;30;20040;-88
2023/09/06 01:10:25;;;;;;;9.38;8.32;;;;;;;15.47;100.00;100329.72;4753322;30;20118;-88
2023/09/06 01:12:53;;;;;;;10.68;8.43;;;;;;;15.47;100.00;100333.19;4768137;30;20169;-89
2023/09/06 01:15:19;;;;;;;12.18;9.55;;;;;;;15.32;100.00;100318.28;4753165;30;20125;-89
2023/09/06 01:17:46;;;;;;;10.55;8.73;;;;;;;15.35;100.00;100344.38;4753073;30;20492;-89
2023/09/06 01:20:23;;;;;;;11.18;9.13;;;;;;;15.33;100.00;100338.34;4752758;30;20088;-89
2023/09/06 01:23:05;;;;;;;10.32;7.95;;;;;;;14.97;100.00;100271.25;4753143;30;20067;-89
2023/09/06 01:25:31;;;;;;;11.25;8.60;;;;;;;15.17;100.00;100309.50;4753070;30;20040;-88
2023/09/06 01:27:56;;;;;;;11.38;10.18;;;;;;;15.33;100.00;100334.88;4753205;30;20039;-88
2023/09/06 01:30:27;;;;;;;10.05;8.30;;;;;;;15.31;100.00;100324.47;4767596;30;20031;-88
2023/09/06 01:32:52;;;;;;;12.40;10.03;;;;;;;15.10;100.00;100297.66;4769145;30;20040;-88
2023/09/06 01:35:18;;;;;;;10.10;8.75;;;;;;;15.20;100.00;100327.69;4752934;30;20905;-90
2023/09/06 01:37:43;;;;;;;12.75;9.50;;;;;;;15.17;100.00;100334.91;4752988;30;20024;-89
2023/09/06 01:40:15;;;;;;;11.60;8.98;;;;;;;15.16;100.00;100334.03;4752964;30;20036;-88
2023/09/06 01:42:42;;;;;;;11.40;9.38;;;;;;;15.21;100.00;100328.53;4753072;30;20450;-88
2023/09/06 01:45:07;;;;;;;11.13;8.65;;;;;;;15.12;100.00;100319.38;4767513;30;20035;-89
2023/09/06 01:47:33;;;;;;;10.07;8.55;;;;;;;15.11;100.00;100322.94;4752922;30;20040;-88
2023/09/06 01:49:58;;;;;;;10.95;8.82;;;;;;;15.05;100.00;100311.97;4753096;30;20032;-89
2023/09/06 01:52:23;;;;;;;11.32;9.40;;;;;;;15.05;100.00;100314.59;4767625;30;20448;-89
2023/09/06 01:54:49;;;;;;;10.25;8.65;;;;;;;14.91;100.00;100291.69;4769132;30;20115;-87
2023/09/06 01:57:14;;;;;;;16.25;9.98;;;;;;;14.96;100.00;100318.56;4752562;30;20067;-89
2023/09/06 01:59:39;;;;;;;9.85;8.80;;;;;;;15.00;100.00;100314.84;4768764;30;20077;-89
2023/09/06 02:02:05;;;;;;;11.30;9.13;;;;;;;14.64;100.00;100267.81;4752839;30;20039;-88
2023/09/06 02:04:30;;;;;;;10.23;9.13;;;;;;;14.80;100.00;100291.47;4753024;30;20542;-88
2023/09/06 02:06:55;;;;;;;12.57;9.77;;;;;;;14.92;100.00;100309.16;4768738;30;20085;-89
2023/09/06 02:09:21;;;;;;;13.20;9.68;;;;;;;14.87;100.00;100306.75;4752556;30;20083;-88
2023/09/06 02:11:46;;;;;;;12.30;9.60;;;;;;;14.87;100.00;100306.75;4754163;30;20063;-88
2023/09/06 02:14:11;;;;;;;13.23;9.45;;;;;;;14.88;100.00;100307.63;4770852;30;20499;-88
2023/09/06 02:16:37;;;;;;;13.02;10.85;;;;;;;14.85;100.00;100310.41;4756117;30;20486;-88
2023/09/06 02:19:03;;;;;;;12.38;9.82;;;;;;;14.71;100.00;100285.78;4756172;30;20032;-89
2023/09/06 02:21:28;;;;;;;10.18;8.52;;;;;;;14.76;100.00;100303.03;4755799;30;20209;-89
2023/09/06 02:23:56;;;;;;;12.90;9.80;;;;;;;14.87;100.00;100316.41;4756122;30;20035;-88
2023/09/06 02:26:21;;;;;;;12.35;9.20;;;;;;;14.73;100.00;100304.03;4771659;30;20042;-87
2023/09/06 02:28:46;;;;;;;11.95;10.48;;;;;;;14.69;100.00;100292.84;4771760;30;20381;-88
2023/09/06 02:31:13;;;;;;;11.50;9.77;;;;;;;14.70;100.00;100299.78;4755806;30;20043;-89
2023/09/06 02:33:39;;;;;;;10.15;9.13;;;;;;;14.78;100.00;100315.13;4770966;30;20107;-88
2023/09/06 02:36:05;;;;;;;10.80;9.32;;;;;;;14.70;100.00;100307.66;4772071;30;20114;-88
2023/09/06 02:38:30;;;;;;;12.38;9.15;;;;;;;14.69;100.00;100316.47;4755705;30;20196;-88
2023/09/06 02:40:56;;;;;;;10.75;9.57;;;;;;;14.59;100.00;100296.91;4755660;30;20032;-89
2023/09/06 02:43:22;;;;;;;12.13;9.82;;;;;;;14.63;100.00;100295.81;4755497;30;20032;-88
2023/09/06 02:45:49;;;;;;;11.95;9.98;;;;;;;14.56;100.00;100288.34;4755484;30;20036;-89
2023/09/06 02:48:18;;;;;;;9.43;8.40;;;;;;;14.66;100.00;100316.63;4755300;30;20040;-88
2023/09/06 02:50:44;;;;;;;12.20;8.52;;;;;;;14.60;100.00;100313.47;4755477;30;20046;-88
2023/09/06 02:53:19;;;;;;;12.48;9.98;;;;;;;14.58;100.00;100317.94;4755196;30;20209;-89
2023/09/06 02:55:54;;;;;;;11.70;9.35;;;;;;;14.49;100.00;100308.78;4770277;30;20047;-89
2023/09/06 02:58:23;;;;;;;13.18;9.05;;;;;;;14.58;100.00;100331.94;4755353;30;20035;-88
2023/09/06 03:00:49;;;;;;;11.77;10.00;;;;;;;14.55;100.00;100332.06;4733517;30;20059;-88
2023/09/06 03:03:16;;;;;;;11.20;9.35;;;;;;;14.54;100.00;100334.75;4718915;30;20067;-89
2023/09/06 03:05:42;;;;;;;11.73;10.32;;;;;;;14.21;100.00;100284.00;4718891;30;20052;-88
2023/09/06 03:08:12;;;;;;;12.05;10.00;;;;;;;14.44;100.00;100336.97;4718863;30;20055;-89
2023/09/06 03:10:39;;;;;;;12.75;8.70;;;;;;;14.35;100.00;100325.19;4733619;30;20076;-89
2023/09/06 03:13:05;;;;;;;11.10;9.27;;;;;;;14.34;100.00;100335.78;4734017;30;20083;-87
2023/09/06 03:15:31;;;;;;;10.88;9.43;;;;;;;14.19;100.00;100311.19;4718559;30;20045;-89
2023/09/06 03:17:59;;;;;;;10.07;9.02;;;;;;;14.22;100.00;100324.13;4718856;30;20044;-88
2023/09/06 03:20:42;;;;;;;14.63;9.50;;;;;;;14.31;100.00;100335.94;4718413;30;20045;-88
2023/09/06 03:23:17;;;;;;;13.00;10.10;;;;;;;14.26;100.00;100336.16;4718306;30;20100;-89
2023/09/06 03:25:57;;;;;;;12.98;10.02;;;;;;;13.56;100.00;100225.31;4718429;30;20055;-89
2023/09/06 03:28:25;;;;;;;12.75;10.52;;;;;;;14.26;100.00;100345.78;4732763;30;20412;-88
2023/09/06 03:30:54;;;;;;;12.90;9.73;;;;;;;14.26;100.00;100356.28;4721923;30;20446;-89
2023/09/06 03:33:19;;;;;;;11.32;9.63;;;;;;;14.11;100.00;100342.16;4754520;30;20043;-89
2023/09/06 03:35:46;;;;;;;12.07;9.73;;;;;;;14.21;100.00;100361.75;4769692;30;20039;-89
2023/09/06 03:38:15;;;;;;;13.85;10.93;;;;;;;14.08;100.00;100339.72;4770698;30;20398;-89
2023/09/06 03:40:42;;;;;;;12.63;10.48;;;;;;;14.22;100.00;100345.09;4754696;30;20535;-89
2023/09/06 03:43:19;;;;;;;12.35;10.45;;;;;;;14.23;100.00;100350.25;4754653;30;20028;-89
2023/09/06 03:45:51;;;;;;;12.80;10.55;;;;;;;14.12;100.00;100330.78;4754871;30;20393;-89
2023/09/06 03:48:22;;;;;;;14.15;11.57;;;;;;;13.90;100.00;100303.03;4754111;30;20031;-88
2023/09/06 03:50:51;;;;;;;12.10;10.45;;;;;;;14.13;100.00;100333.31;4769372;30;20089;-89
2023/09/06 03:53:17;;;;;;;13.30;10.95;;;;;;;14.13;100.00;100343.78;4754254;30;20046;-88
2023/09/06 03:55:42;;;;;;;14.68;11.18;;;;;;;14.03;100.00;100331.22;4753756;30;20410;-88
2023/09/06 03:58:10;;;;;;;13.93;11.95;;;;;;;13.98;100.00;100329.69;4770480;30;20117;-88
2023/09/06 04:00:39;;;;;;;13.05;11.50;;;;;;;14.07;100.00;100345.84;4754270;30;20090;-88
2023/09/06 04:03:07;;;;;;;13.23;10.80;;;;;;;14.12;100.00;100352.59;4754335;30;20051;-88
2023/09/06 04:05:33;;;;;;;15.35;12.32;;;;;;;14.04;100.00;100353.91;4714657;30;20049;-88
2023/09/06 04:08:00;;;;;;;12.30;10.98;;;;;;;13.90;100.00;100334.44;4715076;30;20193;-88
2023/09/06 04:10:35;;;;;;;19.17;12.88;;;;;;;13.88;100.00;100349.41;4700247;30;20074;-88
2023/09/06 04:13:01;;;;;;;15.27;11.25;;;;;;;13.90;100.00;100342.28;4714942;30;20408;-88
2023/09/06 04:15:29;;;;;;;13.77;10.70;;;;;;;13.75;100.00;100322.13;4700036;30;20532;-88
2023/09/06 04:17:59;;;;;;;14.82;10.80;;;;;;;13.85;100.00;100328.59;4714723;30;20074;-88
2023/09/06 04:20:27;;;;;;;12.23;10.90;;;;;;;13.67;100.00;100301.56;4714580;30;20452;-89
2023/09/06 04:22:55;;;;;;;12.95;10.88;;;;;;;13.27;100.00;100252.06;4714886;30;20124;-89
2023/09/06 04:25:22;;;;;;;14.48;11.95;;;;;;;13.91;100.00;100358.88;4716928;30;20118;-88
2023/09/06 04:27:48;;;;;;;15.48;11.52;;;;;;;13.87;100.00;100357.34;4732227;30;20085;-88
2023/09/06 04:30:16;;;;;;;15.25;12.20;;;;;;;13.75;100.00;100329.97;4717179;30;20458;-88
2023/09/06 04:32:46;;;;;;;15.93;12.18;;;;;;;13.93;100.00;100363.09;4718721;30;20048;-89
2023/09/06 04:35:15;;;;;;;13.90;12.40;;;;;;;13.94;100.00;100364.78;4717172;30;20036;-88
2023/09/06 04:37:41;;;;;;;15.63;12.65;;;;;;;13.92;100.00;100360.56;4785756;30;20477;-88
2023/09/06 04:40:13;;;;;;;14.98;12.00;;;;;;;13.77;100.00;100330.72;4787592;30;20031;-88
2023/09/06 04:42:42;;;;;;;13.90;12.13;;;;;;;14.07;100.00;100369.44;4771127;30;20405;-88
2023/09/06 04:45:11;;;;;;;17.33;13.50;;;;;;;13.72;100.00;100317.03;4771696;30;20031;-88
2023/09/06 04:47:39;;;;;;;15.57;13.15;;;;;;;13.80;100.00;100327.13;4787474;29;20035;-88
2023/09/06 04:50:06;;;;;;;16.13;12.60;;;;;;;13.93;100.00;100360.50;4787582;29;20486;-88
2023/09/06 04:52:36;;;;;;;16.73;12.85;;;;;;;13.83;100.00;100337.47;4771357;30;20063;-88
2023/09/06 04:55:02;;;;;;;14.80;11.93;;;;;;;14.10;100.00;100366.66;4787543;30;20031;-88
2023/09/06 04:57:28;;;;;;;14.43;11.80;;;;;;;13.89;100.00;100327.53;4770789;30;20134;-88
2023/09/06 04:59:53;;;;;;;15.15;12.95;;;;;;;14.06;100.00;100344.16;4771124;30;20040;-88
2023/09/06 05:02:18;;;;;;;14.55;11.27;;;;;;;13.54;100.00;100258.59;4774083;30;20031;-87
2023/09/06 05:04:44;;;;;;;15.48;12.13;;;;;;;14.39;100.00;100380.94;4771237;30;20027;-87
2023/09/06 05:07:10;;;;;;;13.27;11.60;;;;;;;14.48;100.00;100368.22;4785902;30;20085;-87
2023/09/06 05:09:35;;;;;;;15.77;11.57;;;;;;;14.61;100.00;100365.81;4771124;30;20050;-87
2023/09/06 05:12:00;;;;;;;13.40;11.20;;;;;;;14.82;100.00;100373.50;4771306;30;20034;-87
2023/09/06 05:14:29;;;;;;;15.07;10.98;;;;;;;15.16;100.00;100383.88;4771036;30;20035;-88
2023/09/06 05:16:54;;;;;;;13.57;10.50;;;;;;;15.33;100.00;100372.47;4770529;30;20066;-88
2023/09/06 05:19:21;;;;;;;12.57;11.00;;;;;;;15.74;100.00;100395.63;4770411;30;20063;-88
2023/09/06 05:21:46;;;;;;;14.18;11.20;;;;;;;15.96;100.00;100384.75;4786667;30;20035;-88
2023/09/06 05:24:12;;;;;;;15.55;12.07;;;;;;;16.15;100.00;100392.44;4748662;30;20106;-88
2023/09/06 05:26:38;;;;;;;13.80;11.07;;;;;;;16.21;100.00;100368.41;4748558;30;20080;-88
2023/09/06 05:29:04;;;;;;;14.00;11.02;;;;;;;16.30;100.00;100348.63;4748757;30;20055;-87
2023/09/06 05:31:29;;;;;;;14.73;11.10;;;;;;;16.73;100.00;100393.41;4748265;30;20126;-87
2023/09/06 05:33:55;;;;;;;30.92;13.18;;;;;;;16.94;100.00;100395.63;4734090;30;20495;-88
2023/09/06 05:36:20;;;;;;;12.85;11.00;;;;;;;17.00;100.00;100380.38;4748977;30;20076;-88
2023/09/06 05:38:45;;;;;;;13.65;10.63;;;;;;;17.19;100.00;100389.69;4748557;30;20032;-87
2023/09/06 05:41:11;;;;;;;12.80;10.57;;;;;;;17.39;100.00;100385.78;4748580;30;20036;-88
2023/09/06 05:43:36;;;;;;;14.18;10.75;;;;;;;17.70;100.00;100397.03;4748143;30;20052;-88
2023/09/06 05:46:01;;;;;;;14.23;10.57;;;;;;;17.82;100.00;100380.44;4748800;30;20063;-88
2023/09/06 05:48:27;;;;;;;10.90;9.80;;;;;;;17.91;100.00;100363.19;4751918;30;20122;-88
2023/09/06 05:50:52;;;;;;;12.05;9.95;;;;;;;18.30;98.29;100406.31;4751893;30;20045;-88
2023/09/06 05:53:17;;;;;;;11.43;10.25;;;;;;;18.17;97.04;100398.38;4737093;30;20036;-89
2023/09/06 05:55:43;;;;;;;12.85;10.68;;;;;;;18.32;97.71;100405.25;4763269;30;20133;-89
2023/09/06 05:58:08;;;;;;;11.20;10.00;;;;;;;18.50;97.86;100400.56;4773888;30;20069;-89
2023/09/06 06:00:34;;;;;;;12.30;9.35;;;;;;;18.71;97.87;100406.19;4789985;30;20039;-89
2023/09/06 06:03:01;;;;;;;11.63;9.93;;;;;;;18.87;96.19;100395.41;4767429;30;20068;-89
2023/09/06 06:05:28;;;;;;;11.00;9.50;;;;;;;18.76;94.96;100335.47;4770323;29;20112;-89
2023/09/06 06:07:53;;;;;;;10.25;9.13;;;;;;;19.37;93.85;100402.41;4774097;30;20069;-89
2023/09/06 06:10:19;;;;;;;10.80;8.63;;;;;;;19.58;93.23;100394.75;4773807;30;20042;-89
2023/09/06 06:12:44;;;;;;;10.50;9.00;;;;;;;19.86;90.85;100421.88;4773689;30;20035;-89
2023/09/06 06:15:13;;;;;;;10.02;8.45;;;;;;;19.83;89.69;100395.66;4767083;30;20051;-88
2023/09/06 06:17:39;;;;;;;12.05;9.95;;;;;;;19.92;89.54;100406.38;4757242;30;20130;-89
2023/09/06 06:20:06;;;;;;;10.63;9.10;;;;;;;19.88;89.39;100409.38;4759437;30;20670;-89
2023/09/06 06:22:37;;;;;;;10.55;8.63;;;;;;;19.61;88.55;100359.38;4765175;30;20031;-90
2023/09/06 06:25:03;;;;;;;10.40;8.65;;;;;;;20.17;89.36;100408.06;4773510;30;20035;-88
2023/09/06 06:27:29;;;;;;;10.02;8.07;;;;;;;20.22;87.50;100375.97;4751023;30;20144;-88
2023/09/06 06:29:54;;;;;;;20.10;8.77;;;;;;;20.54;86.93;100405.31;4736653;30;20135;-89
2023/09/06 06:32:19;;;;;;;9.32;8.43;;;;;;;20.56;86.41;100408.72;4736343;30;20052;-89
2023/09/06 06:34:49;;;;;;;11.98;8.30;;;;;;;20.70;86.20;100396.22;4736581;30;20530;-89
2023/09/06 06:37:15;;;;;;;9.90;8.20;;;;;;;20.93;86.45;100395.25;4736509;30;20036;-88
2023/09/06 06:39:40;;;;;;;11.27;9.70;;;;;;;21.29;85.14;100396.84;4750864;30;20047;-89
2023/09/06 06:42:06;;;;;;;10.48;8.65;;;;;;;21.28;84.77;100379.25;4736384;30;20040;-89
2023/09/06 06:44:32;;;;;;;10.32;7.72;;;;;;;21.77;84.45;100420.38;4736092;30;20036;-89
2023/09/06 06:46:57;;;;;;;9.93;7.43;;;;;;;21.78;82.40;100405.31;4751418;30;20487;-89
2023/09/06 06:49:23;;;;;;;8.85;8.00;;;;;;;21.88;81.88;100399.16;4736074;30;20583;-89
2023/09/06 06:51:48;;;;;;;9.80;7.55;;;;;;;22.13;82.62;100403.31;4751065;30;20071;-88
2023/09/06 06:54:14;;;;;;;9.85;7.63;;;;;;;22.04;82.53;100321.81;4751430;30;20111;-88
2023/09/06 06:56:40;;;;;;;8.38;7.35;;;;;;;22.70;81.38;100368.47;4750396;30;20056;-88
2023/09/06 06:59:07;;;;;;;7.35;6.45;;;;;;;22.95;80.08;100367.22;4750740;30;20396;-88
2023/09/06 07:01:33;;;;;;;7.55;6.85;;;;;;;23.45;77.76;100396.47;4750739;30;20156;-88
2023/09/06 07:03:58;;;;;;;8.32;6.30;;;;;;;23.80;76.42;100404.00;4740086;29;20551;-89
2023/09/06 07:06:24;;;;;;;9.10;7.60;;;;;;;24.00;75.45;100397.72;4772573;30;20493;-89
2023/09/06 07:08:51;;;;;;;7.75;7.05;;;;;;;24.26;75.39;100395.31;4772740;30;20046;-89
2023/09/06 07:11:16;;;;;;;10.10;7.07;;;;;;;24.45;74.97;100375.03;4772657;30;20517;-89
2023/09/06 07:13:42;;;;;;;8.25;7.25;;;;;;;25.04;74.88;100401.34;4772341;30;20039;-88
2023/09/06 07:16:09;;;;;;;7.20;6.60;;;;;;;25.39;73.79;100405.97;4772375;30;20460;-89
2023/09/06 07:18:34;;;;;;;8.52;6.55;;;;;;;25.63;72.38;100381.41;4788305;29;20107;-88
2023/09/06 07:21:00;;;;;;;7.30;6.60;;;;;;;26.24;71.50;100413.69;4772662;30;20397;-89
2023/09/06 07:23:26;;;;;;;8.00;6.40;;;;;;;26.81;70.01;100416.84;4772583;30;20035;-89
2023/09/06 07:25:52;;;;;;;7.57;6.70;;;;;;;27.56;68.45;100417.88;4772423;30;20039;-90
2023/09/06 07:28:18;;;;;;;7.20;6.50;;;;;;;28.21;67.54;100382.34;4772316;30;20027;-89
2023/09/06 07:30:43;;;;;;;7.68;5.68;;;;;;;29.17;64.72;100391.44;4772007;30;20035;-89
2023/09/06 07:33:09;;;;;;;8.15;5.97;;;;;;;30.61;60.56;100423.06;4772143;30;20161;-89
2023/09/06 07:35:35;;;;;;;6.40;5.75;;;;;;;31.76;59.51;100416.16;4772108;30;20042;-89
2023/09/06 07:38:00;;;;;;;6.30;5.70;;;;;;;32.85;57.93;100417.75;4772452;30;20031;-89
2023/09/06 07:40:26;;;;;;;7.40;6.10;;;;;;;33.67;56.43;100423.19;4771899;30;20046;-90
2023/09/06 07:42:52;;;;;;;9.05;6.72;;;;;;;33.88;55.25;100378.09;4772089;30;20035;-90
2023/09/06 07:45:17;;;;;;;7.55;6.22;;;;;;;34.23;53.40;100397.72;4771987;30;20058;-89
2023/09/06 07:47:43;;;;;;;6.40;5.80;;;;;;;34.53;52.57;100427.06;4787855;29;20603;-90
2023/09/06 07:50:11;;;;;;;6.60;6.00;;;;;;;34.35;52.01;100406.03;4772049;30;20449;-89
2023/09/06 07:52:37;;;;;;;7.28;6.15;;;;;;;34.30;52.03;100428.28;4771720;30;20084;-90
2023/09/06 07:55:07;;;;;;;6.47;5.88;;;;;;;33.46;52.26;100399.84;4771814;30;20031;-89
2023/09/06 07:57:33;;;;;;;7.18;5.95;;;;;;;32.23;54.05;100374.31;4787707;29;20058;-89
2023/09/06 07:59:58;;;;;;;8.07;5.53;;;;;;;31.32;56.06;100402.81;4771598;29;20028;-89
2023/09/06 08:02:24;;;;;;;7.25;5.82;;;;;;;30.38;57.31;100418.53;4771861;29;20542;-89
2023/09/06 08:04:50;;;;;;;7.43;5.75;;;;;;;29.67;58.76;100412.50;4771778;30;20490;-89
2023/09/06 08:07:16;;;;;;;6.35;5.75;;;;;;;29.03;60.04;100406.38;4771769;30;20039;-89
2023/09/06 08:09:42;;;;;;;7.35;5.70;;;;;;;28.56;60.08;100415.16;4770833;30;20028;-89
2023/09/06 08:12:07;;;;;;;7.05;5.80;;;;;;;28.10;61.62;100412.13;4771498;30;20031;-90
2023/09/06 08:14:33;;;;;;;7.00;6.38;;;;;;;27.45;62.62;100361.97;4771245;30;20467;-89
2023/09/06 08:16:58;;;;;;;6.93;5.90;;;;;;;27.45;62.95;100409.31;4771170;29;20035;-89
2023/09/06 08:19:23;;;;;;;5.72;5.20;;;;;;;27.05;62.46;100392.03;4771193;30;20137;-89
2023/09/06 08:21:49;;;;;;;6.32;5.22;;;;;;;26.92;62.38;100407.69;4771193;30;20042;-89
2023/09/06 08:24:17;;;;;;;5.68;5.07;;;;;;;26.65;63.49;100401.53;4771452;30;20035;-89
2023/09/06 08:26:42;;;;;;;6.35;5.45;;;;;;;26.50;64.08;100417.28;4771131;30;20107;-89
2023/09/06 08:29:08;;;;;;;6.13;5.53;;;;;;;26.36;64.53;100415.97;4731649;30;20044;-89
2023/09/06 08:31:33;;;;;;;7.53;5.28;;;;;;;26.09;65.57;100405.41;4731459;30;20522;-88
2023/09/06 08:33:59;;;;;;;6.63;5.22;;;;;;;25.87;66.15;100391.53;4731759;30;20047;-89
2023/09/06 08:36:24;;;;;;;7.50;5.70;;;;;;;25.83;66.04;100419.50;4731703;30;20032;-89
2023/09/06 08:38:49;;;;;;;6.53;5.57;;;;;;;25.74;67.37;100422.19;4731491;30;20072;-89
2023/09/06 08:41:15;;;;;;;7.40;6.00;;;;;;;25.50;67.88;100406.78;4731518;30;20534;-88
2023/09/06 08:43:42;;;;;;;6.95;5.53;;;;;;;25.42;68.60;100414.69;4731562;30;20411;-89
2023/09/06 08:46:16;;;;;;;7.70;5.70;;;;;;;25.23;69.36;100400.44;4731652;30;20072;-89
2023/09/06 08:48:43;;;;;;;6.68;5.97;;;;;;;25.30;69.83;100420.19;4716626;30;20190;-89
2023/09/06 08:51:11;;;;;;;7.45;5.63;;;;;;;25.23;70.55;100435.09;4731463;30;20157;-89
2023/09/06 08:53:42;;;;;;;6.20;5.60;;;;;;;25.18;71.18;100436.53;4730387;30;20597;-88
2023/09/06 08:56:09;;;;;;;6.63;6.03;;;;;;;25.01;70.89;100417.63;4730967;30;20056;-88
2023/09/06 08:58:35;;;;;;;13.10;6.60;;;;;;;24.95;69.84;100423.56;4716037;30;20037;-87
2023/09/06 09:01:03;;;;;;;8.15;6.45;;;;;;;24.86;71.02;100427.06;4765837;30;20051;-88
2023/09/06 09:03:29;;;;;;;5.60;5.10;;;;;;;24.83;72.05;100422.03;4770622;30;20035;-88
2023/09/06 09:06:09;;;;;;;6.80;5.93;;;;;;;24.69;71.99;100415.31;4770620;30;20105;-90
2023/09/06 09:08:34;;;;;;;7.05;5.85;;;;;;;24.70;72.17;100425.00;4770154;30;20494;-89
2023/09/06 09:11:14;;;;;;;7.15;5.35;;;;;;;24.46;70.31;100420.16;4770233;30;20089;-90
2023/09/06 09:13:41;;;;;;;6.97;6.22;;;;;;;24.32;70.65;100410.75;4770609;30;20394;-89
2023/09/06 09:16:10;;;;;;;7.15;5.97;;;;;;;24.27;69.45;100431.63;4770456;30;20039;-90
2023/09/06 09:18:38;;;;;;;8.23;5.82;;;;;;;24.17;69.41;100437.91;4786092;30;20027;-89
2023/09/06 09:21:04;;;;;;;6.57;5.30;;;;;;;24.10;69.67;100441.16;4789906;29;20055;-90
2023/09/06 09:23:31;;;;;;;6.90;5.15;;;;;;;24.15;71.01;100441.56;4776104;30;20077;-89
2023/09/06 09:25:56;;;;;;;7.18;4.68;;;;;;;23.97;71.75;100407.78;4776759;30;20039;-90
2023/09/06 09:28:22;;;;;;;6.28;4.95;;;;;;;24.24;69.56;100447.03;4776685;30;20050;-90
2023/09/06 09:30:48;;;;;;;6.85;4.93;;;;;;;24.18;71.34;100435.09;4776711;30;20034;-90
2023/09/06 09:33:14;;;;;;;5.65;4.90;;;;;;;24.09;71.74;100419.97;4776496;30;20493;-89
2023/09/06 09:35:40;;;;;;;6.22;5.20;;;;;;;24.15;72.02;100425.59;4776352;30;20101;-89
2023/09/06 09:38:10;;;;;;;7.13;5.10;;;;;;;24.19;68.62;100451.91;4776263;30;20031;-90
2023/09/06 09:40:36;;;;;;;6.35;5.25;;;;;;;24.13;68.83;100458.66;4776295;30;20481;-89
2023/09/06 09:43:04;;;;;;;6.82;5.32;;;;;;;24.04;69.85;100443.53;4776502;30;20513;-90
2023/09/06 09:45:39;;;;;;;6.43;5.13;;;;;;;24.05;68.23;100440.72;4776429;30;20477;-90
2023/09/06 09:48:07;;;;;;;5.20;4.65;;;;;;;24.11;69.05;100442.00;4776550;30;20038;-89
2023/09/06 09:50:33;;;;;;;6.18;5.55;;;;;;;23.95;69.20;100421.25;4776029;29;20134;-90
2023/09/06 09:53:02;;;;;;;5.68;5.03;;;;;;;23.94;69.94;100408.09;4776816;30;20450;-90
2023/09/06 09:55:32;;;;;;;5.30;4.60;;;;;;;24.10;68.15;100438.50;4776558;30;20046;-90
2023/09/06 09:58:06;;;;;;;5.57;5.03;;;;;;;24.01;69.02;100444.63;4776359;30;20054;-90
2023/09/06 10:00:32;;;;;;;5.20;4.40;;;;;;;23.97;68.67;100440.56;4776228;30;20031;-89
2023/09/06 10:02:59;;;;;;;5.10;4.60;;;;;;;23.89;69.59;100430.63;4792642;30;20031;-90
2023/09/06 10:05:29;;;;;;;5.80;5.25;;;;;;;23.96;69.54;100430.06;4776398;29;20039;-89
2023/09/06 10:07:55;;;;;;;5.72;5.05;;;;;;;23.90;67.56;100423.47;4776041;30;20035;-89
2023/09/06 10:10:22;;;;;;;5.53;4.95;;;;;;;24.10;69.27;100445.59;4776226;30;20461;-90
2023/09/06 10:12:53;;;;;;;5.13;4.63;;;;;;;23.95;70.55;100407.94;4775904;30;20118;-90
2023/09/06 10:15:24;;;;;;;5.35;4.80;;;;;;;24.24;68.86;100447.03;4776094;30;20057;-89
2023/09/06 10:17:55;;;;;;;6.05;5.45;;;;;;;24.26;68.73;100455.72;4775815;30;20035;-90
2023/09/06 10:20:26;;;;;;;7.97;5.70;;;;;;;24.22;67.77;100441.84;4776318;30;20045;-90
2023/09/06 10:22:55;;;;;;;5.82;5.05;;;;;;;24.21;67.60;100449.97;4775975;30;20122;-90
2023/09/06 10:25:21;;;;;;;5.20;4.70;;;;;;;24.18;68.28;100443.09;4776153;30;20126;-89
2023/09/06 10:27:49;;;;;;;5.93;4.75;;;;;;;24.22;69.80;100439.16;4753763;30;20131;-89
2023/09/06 10:30:17;;;;;;;6.65;5.13;;;;;;;24.26;69.67;100437.06;4739350;30;20048;-90
2023/09/06 10:32:45;;;;;;;5.60;5.00;;;;;;;24.18;68.21;100421.81;4736765;30;20054;-90
2023/09/06 10:35:40;;;;;;;6.10;5.20;;;;;;;24.34;69.06;100440.72;4751453;30;20032;-90
2023/09/06 10:38:16;;;;;;;5.68;4.60;;;;;;;24.39;69.60;100441.16;4667122;30;20085;-90
2023/09/06 10:40:47;;;;;;;5.72;4.80;;;;;;;24.45;69.96;100436.28;4681296;30;20050;-89
2023/09/06 10:43:13;;;;;;;8.52;4.93;;;;;;;24.37;69.60;100424.50;4681482;30;20468;-90
2023/09/06 10:45:40;;;;;;;6.25;5.07;;;;;;;24.28;70.19;100390.72;4681305;30;20141;-90
2023/09/06 10:48:10;;;;;;;5.95;5.07;;;;;;;24.55;70.36;100437.09;4681576;30;20046;-89
2023/09/06 10:50:36;;;;;;;5.13;4.63;;;;;;;24.60;69.49;100437.50;4681353;30;20460;-90
2023/09/06 10:53:03;;;;;;;8.30;5.03;;;;;;;24.37;66.62;100405.84;4681259;30;20085;-90
2023/09/06 10:55:42;;;;;;;5.32;4.82;;;;;;;24.57;66.65;100437.81;4681499;30;20120;-89
2023/09/06 10:58:10;;;;;;;4.85;4.38;;;;;;;24.48;67.31;100423.53;4667924;30;20513;-90
2023/09/06 11:00:36;;;;;;;5.32;4.82;;;;;;;24.61;67.67;100444.53;4666672;30;20042;-90
2023/09/06 11:03:08;;;;;;;7.90;5.28;;;;;;;24.40;67.41;100407.41;4666842;30;20390;-90
2023/09/06 11:05:38;;;;;;;6.72;5.72;;;;;;;24.59;65.99;100449.13;4681110;30;20126;-90
2023/09/06 11:08:06;;;;;;;5.50;4.70;;;;;;;24.36;67.32;100398.84;4666999;30;20053;-90
2023/09/06 11:10:32;;;;;;;5.63;5.03;;;;;;;24.55;68.27;100426.44;4681528;30;20030;-89
2023/09/06 11:13:11;;;;;;;4.65;4.25;;;;;;;24.54;68.70;100414.94;4663209;30;20089;-88
2023/09/06 11:15:38;;;;;;;7.85;4.63;;;;;;;24.47;67.77;100400.50;4728494;30;20050;-89